MET'MAP v2.0
soon released !

Expected late october,
this new version will be
more efficient, smarter,
and hosted on a brand new
server x3 powerfull...
...and still free !


Not compatible ?
Try the mobile version !

LOG IN : | Subscribe | Disclaimer | Who is Orbifly ? |
ICAO code :

TAF - LIPB Bolzano Airport - 29 May 2020 00:44 UTC
Data Sources :     NOAA   


- Airport Elevation : 789 ft
- IATA code : BZO
- No reported NOTAMs.


LIPB - Bolzano Airport

Latest METAR recorded : 2015/08/11 07:50 LIPB 110750Z VRB03KT 9999 FEW100 25/13 Q1016
TAF TAF LIPB
Valid from the 28 at 18:00 until the 29 at 18:00 UTC


281700Z 2818/2918 VRB06KT 9999 SCT040
TEMPO 2818/2906 TSRA

Source NOAA


MET'MAP, your aeronautical weather chart ! - Copyright ORBIFLY December 2007

Programming & Development : Alexandra Zaïnal
Co-Developer : Marc-Olivier Méhu
Technical & hardware support : Manuel Goepfert
Concept & Financing : Baudouin d'Aumeries